PWSweather.com
Personal Weather Stations
Station Observations
KNVELKO7
Elko, NV 89801

Elko, NV 89801

Lat: 40.963233, Lon: -115.592836

Elevation: 5230

Station Type: WS-2812

Latest ConditionsUpdated 12:23:23 PM PDT Sunday, Jul 5, 2015
Currently Today's Max Today's Min Today's Average
Temperature 83.5°F28.6°C 84.1°F28.9°C 63.0°F17.2°C 69.2°F20.7°C
Dew Point 58.1°F14.5°C 60.4°F15.8°C 52.9°F11.6°C 55.8°F13.2°C
Winds 11.4 mph SW18.3 kmh SW 15.7 mph WSW25.3 kmh WSW - 9.0 mph 14.5 kmh
Wind Gusts 15.7 mph25.3 kmh 19.2 mph30.9 kmh - -
Humidity 42% 75% 40% 64%
Pressure 30.12 in1020.0 mb 30.13 in1020.3 mb 30.08 in1018.6 mb -
Hour Temp Dew Point Humidity Winds Wind Gusts Pressure Precip Precip Rate Daily Precip Total
12:23 PM 83.5°F28.6°C 58.1°F14.5°C 42% 11.4 mph SW18.3 kmh SW 15.7 mph25.3 kmh 30.12 in1020.0 mb 0.00 in0.0 mm 0.00 in0.0 mm 0.00 in0.0 mm
12:18 PM 83.0°F28.3°C 57.5°F14.2°C 42% 11.5 mph SW18.5 kmh SW 15.7 mph25.3 kmh 30.12 in1020.0 mb 0.00 in0.0 mm 0.00 in0.0 mm 0.00 in0.0 mm
12:13 PM 82.6°F28.1°C 57.2°F14.0°C 42% 9.9 mph SW15.9 kmh SW 17.7 mph28.5 kmh 30.12 in1020.0 mb 0.00 in0.0 mm 0.00 in0.0 mm 0.00 in0.0 mm
12:08 PM 82.4°F28.0°C 55.8°F13.2°C 40% 15.7 mph WSW25.3 kmh WSW 17.7 mph28.5 kmh 30.12 in1020.0 mb 0.00 in0.0 mm 0.00 in0.0 mm 0.00 in0.0 mm
12:03 PM 81.9°F27.7°C 57.8°F14.3°C 44% 10.1 mph SW16.3 kmh SW 15.7 mph25.3 kmh 30.12 in1020.0 mb 0.00 in0.0 mm 0.00 in0.0 mm 0.00 in0.0 mm
11:58 AM 82.3°F27.9°C 56.3°F13.5°C 41% 12.5 mph WSW20.1 kmh WSW 19.2 mph30.9 kmh 30.12 in1020.0 mb 0.00 in0.0 mm 0.00 in0.0 mm 0.00 in0.0 mm
11:53 AM 83.3°F28.5°C 56.6°F13.7°C 40% 12.5 mph SW20.1 kmh SW 19.2 mph30.9 kmh 30.12 in1020.0 mb 0.00 in0.0 mm 0.00 in0.0 mm 0.00 in0.0 mm
11:48 AM 84.1°F28.9°C 59.1°F15.1°C 43% 13.8 mph S22.2 kmh S 17.7 mph28.5 kmh 30.12 in1020.0 mb 0.00 in0.0 mm 0.00 in0.0 mm 0.00 in0.0 mm
11:43 AM 83.5°F28.6°C 59.2°F15.1°C 44% 10.6 mph S17.1 kmh S 17.7 mph28.5 kmh 30.12 in1020.0 mb 0.00 in0.0 mm 0.00 in0.0 mm 0.00 in0.0 mm
11:38 AM 82.8°F28.2°C 58.6°F14.8°C 44% 8.4 mph SSW13.5 kmh SSW 15.0 mph24.1 kmh 30.12 in1020.0 mb 0.00 in0.0 mm 0.00 in0.0 mm 0.00 in0.0 mm
11:33 AM 82.6°F28.1°C 59.1°F15.1°C 45% 11.3 mph SSW18.2 kmh SSW 17.0 mph27.4 kmh 30.12 in1020.0 mb 0.00 in0.0 mm 0.00 in0.0 mm 0.00 in0.0 mm
11:28 AM 81.9°F27.7°C 57.8°F14.3°C 44% 14.2 mph W22.9 kmh W 17.0 mph27.4 kmh 30.12 in1020.0 mb 0.00 in0.0 mm 0.00 in0.0 mm 0.00 in0.0 mm
11:23 AM 81.4°F27.4°C 57.9°F14.4°C 45% 12.9 mph SW20.8 kmh SW 15.0 mph24.1 kmh 30.12 in1020.0 mb 0.00 in0.0 mm 0.00 in0.0 mm 0.00 in0.0 mm
11:18 AM 80.6°F27.0°C 59.0°F15.0°C 48% 9.6 mph S15.4 kmh S 13.6 mph21.9 kmh 30.12 in1020.0 mb 0.00 in0.0 mm 0.00 in0.0 mm 0.00 in0.0 mm
11:13 AM 80.5°F26.9°C 57.7°F14.3°C 46% 8.8 mph SW14.2 kmh SW 13.6 mph21.9 kmh 30.13 in1020.3 mb 0.00 in0.0 mm 0.00 in0.0 mm 0.00 in0.0 mm
11:08 AM 80.3°F26.8°C 58.1°F14.5°C 47% 11.9 mph S19.2 kmh S 17.4 mph28.0 kmh 30.12 in1020.0 mb 0.00 in0.0 mm 0.00 in0.0 mm 0.00 in0.0 mm
11:03 AM 80.1°F26.7°C 57.3°F14.1°C 46% 12.4 mph WSW20.0 kmh WSW 17.4 mph28.0 kmh 30.12 in1020.0 mb 0.00 in0.0 mm 0.00 in0.0 mm 0.00 in0.0 mm
10:57 AM 81.0°F27.2°C 57.0°F13.9°C 44% 9.9 mph SW15.9 kmh SW 13.6 mph21.9 kmh 30.12 in1020.0 mb 0.00 in0.0 mm 0.00 in0.0 mm 0.00 in0.0 mm
10:53 AM 81.0°F27.2°C 59.4°F15.2°C 48% 7.9 mph SSW12.7 kmh SSW 13.6 mph21.9 kmh 30.12 in1020.0 mb 0.00 in0.0 mm 0.00 in0.0 mm 0.00 in0.0 mm
10:48 AM 80.6°F27.0°C 58.5°F14.7°C 47% 11.2 mph S18.0 kmh S 13.4 mph21.6 kmh 30.13 in1020.3 mb 0.00 in0.0 mm 0.00 in0.0 mm 0.00 in0.0 mm
10:43 AM 79.9°F26.6°C 58.4°F14.7°C 48% 8.7 mph SSW14.0 kmh SSW 10.7 mph17.2 kmh 30.13 in1020.3 mb 0.00 in0.0 mm 0.00 in0.0 mm 0.00 in0.0 mm
10:38 AM 80.6°F27.0°C 58.5°F14.7°C 47% 9.8 mph WSW15.8 kmh WSW 14.1 mph22.7 kmh 30.12 in1020.0 mb 0.00 in0.0 mm 0.00 in0.0 mm 0.00 in0.0 mm
10:33 AM 80.3°F26.8°C 59.9°F15.5°C 50% 11.1 mph SW17.9 kmh SW 14.1 mph22.7 kmh 30.13 in1020.3 mb 0.00 in0.0 mm 0.00 in0.0 mm 0.00 in0.0 mm
10:28 AM 79.9°F26.6°C 59.0°F15.0°C 49% 6.6 mph SW10.6 kmh SW 13.4 mph21.6 kmh 30.13 in1020.3 mb 0.00 in0.0 mm 0.00 in0.0 mm 0.00 in0.0 mm
10:23 AM 79.6°F26.4°C 60.4°F15.8°C 52% 5.4 mph SW8.7 kmh SW 15.0 mph24.1 kmh 30.13 in1020.3 mb 0.00 in0.0 mm 0.00 in0.0 mm 0.00 in0.0 mm
10:18 AM 78.8°F26.0°C 58.7°F14.8°C 50% 10.7 mph SW17.2 kmh SW 15.0 mph24.1 kmh 30.13 in1020.3 mb 0.00 in0.0 mm 0.00 in0.0 mm 0.00 in0.0 mm
10:13 AM 78.8°F26.0°C 60.2°F15.7°C 53% 8.1 mph SW13.0 kmh SW 14.8 mph23.8 kmh 30.13 in1020.3 mb 0.00 in0.0 mm 0.00 in0.0 mm 0.00 in0.0 mm
10:08 AM 77.9°F25.5°C 58.9°F14.9°C 52% 10.6 mph SSW17.1 kmh SSW 15.0 mph24.1 kmh 30.13 in1020.3 mb 0.00 in0.0 mm 0.00 in0.0 mm 0.00 in0.0 mm
10:03 AM 77.8°F25.4°C 59.8°F15.4°C 54% 11.2 mph WSW18.0 kmh WSW 15.0 mph24.1 kmh 30.13 in1020.3 mb 0.00 in0.0 mm 0.00 in0.0 mm 0.00 in0.0 mm
09:57 AM 76.9°F24.9°C 59.4°F15.2°C 55% 12.6 mph SSW20.3 kmh SSW 15.0 mph24.1 kmh 30.13 in1020.3 mb 0.00 in0.0 mm 0.00 in0.0 mm 0.00 in0.0 mm
09:52 AM 76.7°F24.8°C 58.8°F14.9°C 54% 13.9 mph SW22.4 kmh SW 15.0 mph24.1 kmh 30.13 in1020.3 mb 0.00 in0.0 mm 0.00 in0.0 mm 0.00 in0.0 mm
09:47 AM 76.0°F24.4°C 60.1°F15.6°C 58% 8.6 mph SW13.8 kmh SW 14.8 mph23.8 kmh 30.13 in1020.3 mb 0.00 in0.0 mm 0.00 in0.0 mm 0.00 in0.0 mm
09:42 AM 75.2°F24.0°C 59.0°F15.0°C 57% 10.5 mph SW16.9 kmh SW 16.6 mph26.7 kmh 30.13 in1020.3 mb 0.00 in0.0 mm 0.00 in0.0 mm 0.00 in0.0 mm
09:37 AM 75.4°F24.1°C 59.1°F15.1°C 57% 14.7 mph SW23.7 kmh SW 16.6 mph26.7 kmh 30.13 in1020.3 mb 0.00 in0.0 mm 0.00 in0.0 mm 0.00 in0.0 mm
09:33 AM 74.9°F23.8°C 60.1°F15.6°C 60% 13.7 mph SW22.0 kmh SW 16.6 mph26.7 kmh 30.13 in1020.3 mb 0.00 in0.0 mm 0.00 in0.0 mm 0.00 in0.0 mm
09:28 AM 73.6°F23.1°C 59.8°F15.4°C 62% 11.1 mph SW17.9 kmh SW 12.1 mph19.5 kmh 30.13 in1020.3 mb 0.00 in0.0 mm 0.00 in0.0 mm 0.00 in0.0 mm
09:23 AM 72.7°F22.6°C 59.0°F15.0°C 62% 9.6 mph SW15.4 kmh SW 14.3 mph23.0 kmh 30.13 in1020.3 mb 0.00 in0.0 mm 0.00 in0.0 mm 0.00 in0.0 mm
09:18 AM 72.0°F22.2°C 58.2°F14.6°C 62% 11.6 mph SW18.7 kmh SW 14.3 mph23.0 kmh 30.13 in1020.3 mb 0.00 in0.0 mm 0.00 in0.0 mm 0.00 in0.0 mm
09:13 AM 71.6°F22.0°C 58.8°F14.9°C 64% 12.9 mph SW20.8 kmh SW 15.7 mph25.3 kmh 30.13 in1020.3 mb 0.00 in0.0 mm 0.00 in0.0 mm 0.00 in0.0 mm
09:08 AM 70.9°F21.6°C 58.5°F14.7°C 65% 13.8 mph WSW22.2 kmh WSW 15.7 mph25.3 kmh 30.13 in1020.3 mb 0.00 in0.0 mm 0.00 in0.0 mm 0.00 in0.0 mm
09:03 AM 70.4°F21.3°C 58.1°F14.5°C 65% 11.3 mph SW18.2 kmh SW 14.5 mph23.3 kmh 30.13 in1020.3 mb 0.00 in0.0 mm 0.00 in0.0 mm 0.00 in0.0 mm
08:57 AM 70.2°F21.2°C 57.9°F14.4°C 65% 10.4 mph SW16.7 kmh SW 14.5 mph23.3 kmh 30.13 in1020.3 mb 0.00 in0.0 mm 0.00 in0.0 mm 0.00 in0.0 mm
08:52 AM 70.2°F21.2°C 57.9°F14.4°C 65% 8.3 mph SW13.4 kmh SW 16.3 mph26.2 kmh 30.13 in1020.3 mb 0.00 in0.0 mm 0.00 in0.0 mm 0.00 in0.0 mm
08:47 AM 70.4°F21.3°C 58.4°F14.7°C 66% 12.2 mph SW19.6 kmh SW 16.3 mph26.2 kmh 30.13 in1020.3 mb 0.00 in0.0 mm 0.00 in0.0 mm 0.00 in0.0 mm
08:42 AM 69.3°F20.7°C 57.4°F14.1°C 66% 9.8 mph SW15.8 kmh SW 12.5 mph20.1 kmh 30.13 in1020.3 mb 0.00 in0.0 mm 0.00 in0.0 mm 0.00 in0.0 mm
08:37 AM 69.5°F20.8°C 57.6°F14.2°C 66% 9.9 mph SW15.9 kmh SW 12.5 mph20.1 kmh 30.13 in1020.3 mb 0.00 in0.0 mm 0.00 in0.0 mm 0.00 in0.0 mm
08:32 AM 69.8°F21.0°C 58.3°F14.6°C 67% 10.4 mph SW16.7 kmh SW 13.6 mph21.9 kmh 30.13 in1020.3 mb 0.00 in0.0 mm 0.00 in0.0 mm 0.00 in0.0 mm
08:27 AM 69.3°F20.7°C 58.7°F14.8°C 69% 12.4 mph SW20.0 kmh SW 13.6 mph21.9 kmh 30.12 in1020.0 mb 0.00 in0.0 mm 0.00 in0.0 mm 0.00 in0.0 mm
08:22 AM 67.9°F19.9°C 57.8°F14.3°C 70% 10.5 mph SW16.9 kmh SW 13.4 mph21.6 kmh 30.12 in1020.0 mb 0.00 in0.0 mm 0.00 in0.0 mm 0.00 in0.0 mm
08:18 AM 67.3°F19.6°C 57.2°F14.0°C 70% 11.3 mph SW18.2 kmh SW 13.2 mph21.2 kmh 30.13 in1020.3 mb 0.00 in0.0 mm 0.00 in0.0 mm 0.00 in0.0 mm
08:13 AM 67.0°F19.4°C 57.2°F14.0°C 71% 10.3 mph SSW16.6 kmh SSW 13.6 mph21.9 kmh 30.13 in1020.3 mb 0.00 in0.0 mm 0.00 in0.0 mm 0.00 in0.0 mm
08:08 AM 66.4°F19.1°C 56.7°F13.7°C 71% 10.3 mph SW16.6 kmh SW 13.6 mph21.9 kmh 30.13 in1020.3 mb 0.00 in0.0 mm 0.00 in0.0 mm 0.00 in0.0 mm
08:03 AM 66.1°F18.9°C 56.8°F13.8°C 72% 9.9 mph SW15.9 kmh SW 11.4 mph18.3 kmh 30.13 in1020.3 mb 0.00 in0.0 mm 0.00 in0.0 mm 0.00 in0.0 mm
07:57 AM 65.7°F18.7°C 56.4°F13.6°C 72% 10.0 mph SSW16.1 kmh SSW 10.5 mph16.9 kmh 30.13 in1020.3 mb 0.00 in0.0 mm 0.00 in0.0 mm 0.00 in0.0 mm
07:52 AM 65.5°F18.6°C 56.6°F13.7°C 73% 8.9 mph SW14.3 kmh SW 11.0 mph17.7 kmh 30.13 in1020.3 mb 0.00 in0.0 mm 0.00 in0.0 mm 0.00 in0.0 mm
07:47 AM 65.3°F18.5°C 56.8°F13.8°C 74% 10.4 mph SW16.7 kmh SW 11.0 mph17.7 kmh 30.13 in1020.3 mb 0.00 in0.0 mm 0.00 in0.0 mm 0.00 in0.0 mm
07:42 AM 65.2°F18.4°C 56.3°F13.5°C 73% 6.5 mph SSW10.5 kmh SSW 8.7 mph14.0 kmh 30.13 in1020.3 mb 0.00 in0.0 mm 0.00 in0.0 mm 0.00 in0.0 mm
07:37 AM 64.8°F18.2°C 56.4°F13.6°C 74% 6.6 mph SSW10.6 kmh SSW 8.7 mph14.0 kmh 30.13 in1020.3 mb 0.00 in0.0 mm 0.00 in0.0 mm 0.00 in0.0 mm
07:32 AM 64.6°F18.1°C 56.2°F13.4°C 74% 5.7 mph SW9.2 kmh SW 6.3 mph10.1 kmh 30.13 in1020.3 mb 0.00 in0.0 mm 0.00 in0.0 mm 0.00 in0.0 mm
07:27 AM 64.4°F18.0°C 55.6°F13.1°C 73% 3.7 mph SW6.0 kmh SW 9.2 mph14.8 kmh 30.13 in1020.3 mb 0.00 in0.0 mm 0.00 in0.0 mm 0.00 in0.0 mm
07:22 AM 64.4°F18.0°C 56.0°F13.3°C 74% 7.8 mph SW12.6 kmh SW 9.2 mph14.8 kmh 30.13 in1020.3 mb 0.00 in0.0 mm 0.00 in0.0 mm 0.00 in0.0 mm
07:17 AM 64.4°F18.0°C 56.0°F13.3°C 74% 5.9 mph WSW9.5 kmh WSW 10.5 mph16.9 kmh 30.13 in1020.3 mb 0.00 in0.0 mm 0.00 in0.0 mm 0.00 in0.0 mm
07:12 AM 64.3°F17.9°C 55.8°F13.2°C 74% 6.6 mph WSW10.6 kmh WSW 10.5 mph16.9 kmh 30.12 in1020.0 mb 0.00 in0.0 mm 0.00 in0.0 mm 0.00 in0.0 mm
07:07 AM 64.3°F17.9°C 55.8°F13.2°C 74% 5.9 mph SW9.5 kmh SW 8.7 mph14.0 kmh 30.12 in1020.0 mb 0.00 in0.0 mm 0.00 in0.0 mm 0.00 in0.0 mm
07:02 AM 64.3°F17.9°C 55.8°F13.2°C 74% 7.7 mph SW12.4 kmh SW 8.5 mph13.7 kmh 30.12 in1020.0 mb 0.00 in0.0 mm 0.00 in0.0 mm 0.00 in0.0 mm
06:57 AM 64.1°F17.8°C 55.6°F13.1°C 74% 5.1 mph WSW8.2 kmh WSW 7.8 mph12.6 kmh 30.13 in1020.3 mb 0.00 in0.0 mm 0.00 in0.0 mm 0.00 in0.0 mm
06:52 AM 64.1°F17.8°C 55.6°F13.1°C 74% 4.4 mph SW7.1 kmh SW 10.1 mph16.3 kmh 30.12 in1020.0 mb 0.00 in0.0 mm 0.00 in0.0 mm 0.00 in0.0 mm
06:47 AM 64.1°F17.8°C 55.6°F13.1°C 74% 7.1 mph SW11.4 kmh SW 12.3 mph19.8 kmh 30.12 in1020.0 mb 0.00 in0.0 mm 0.00 in0.0 mm 0.00 in0.0 mm
06:42 AM 64.1°F17.8°C 55.6°F13.1°C 74% 6.5 mph SW10.5 kmh SW 12.3 mph19.8 kmh 30.12 in1020.0 mb 0.00 in0.0 mm 0.00 in0.0 mm 0.00 in0.0 mm
06:37 AM 64.3°F17.9°C 55.8°F13.2°C 74% 8.1 mph SW13.0 kmh SW 11.4 mph18.3 kmh 30.12 in1020.0 mb 0.00 in0.0 mm 0.00 in0.0 mm 0.00 in0.0 mm
06:32 AM 64.3°F17.9°C 55.8°F13.2°C 74% 9.1 mph SW14.6 kmh SW 10.5 mph16.9 kmh 30.12 in1020.0 mb 0.00 in0.0 mm 0.00 in0.0 mm 0.00 in0.0 mm
06:27 AM 63.9°F17.7°C 55.8°F13.2°C 75% 7.5 mph WSW12.1 kmh WSW 12.3 mph19.8 kmh 30.12 in1020.0 mb 0.00 in0.0 mm 0.00 in0.0 mm 0.00 in0.0 mm
06:22 AM 63.7°F17.6°C 55.6°F13.1°C 75% 10.4 mph SW16.7 kmh SW 12.3 mph19.8 kmh 30.12 in1020.0 mb 0.00 in0.0 mm 0.00 in0.0 mm 0.00 in0.0 mm
06:17 AM 63.5°F17.5°C 55.4°F13.0°C 75% 8.9 mph SW14.3 kmh SW 9.8 mph15.8 kmh 30.12 in1020.0 mb 0.00 in0.0 mm 0.00 in0.0 mm 0.00 in0.0 mm
06:12 AM 63.2°F17.3°C 55.1°F12.8°C 75% 8.0 mph SW12.9 kmh SW 8.9 mph14.3 kmh 30.12 in1020.0 mb 0.00 in0.0 mm 0.00 in0.0 mm 0.00 in0.0 mm
06:07 AM 63.0°F17.2°C 54.9°F12.7°C 75% 4.7 mph W7.6 kmh W 8.3 mph13.4 kmh 30.11 in1019.6 mb 0.00 in0.0 mm 0.00 in0.0 mm 0.00 in0.0 mm
06:02 AM 63.0°F17.2°C 54.5°F12.5°C 74% 5.6 mph WSW9.0 kmh WSW 9.2 mph14.8 kmh 30.11 in1019.6 mb 0.00 in0.0 mm 0.00 in0.0 mm 0.00 in0.0 mm
05:57 AM 63.0°F17.2°C 54.5°F12.5°C 74% 7.1 mph SW11.4 kmh SW 10.1 mph16.3 kmh 30.11 in1019.6 mb 0.00 in0.0 mm 0.00 in0.0 mm 0.00 in0.0 mm
05:52 AM 63.0°F17.2°C 54.5°F12.5°C 74% 7.6 mph WSW12.2 kmh WSW 11.0 mph17.7 kmh 30.11 in1019.6 mb 0.00 in0.0 mm 0.00 in0.0 mm 0.00 in0.0 mm
05:47 AM 63.0°F17.2°C 54.5°F12.5°C 74% 10.1 mph SW16.3 kmh SW 11.4 mph18.3 kmh 30.11 in1019.6 mb 0.00 in0.0 mm 0.00 in0.0 mm 0.00 in0.0 mm
05:42 AM 63.0°F17.2°C 54.5°F12.5°C 74% 9.1 mph SW14.6 kmh SW 11.4 mph18.3 kmh 30.10 in1019.3 mb 0.00 in0.0 mm 0.00 in0.0 mm 0.00 in0.0 mm
05:37 AM 63.0°F17.2°C 54.5°F12.5°C 74% 8.8 mph SW14.2 kmh SW 11.4 mph18.3 kmh 30.10 in1019.3 mb 0.00 in0.0 mm 0.00 in0.0 mm 0.00 in0.0 mm
05:32 AM 63.2°F17.3°C 54.7°F12.6°C 74% 10.0 mph SW16.1 kmh SW 11.9 mph19.2 kmh 30.10 in1019.3 mb 0.00 in0.0 mm 0.00 in0.0 mm 0.00 in0.0 mm
05:27 AM 63.2°F17.3°C 54.7°F12.6°C 74% 8.3 mph WSW13.4 kmh WSW 11.9 mph19.2 kmh 30.10 in1019.3 mb 0.00 in0.0 mm 0.00 in0.0 mm 0.00 in0.0 mm
05:22 AM 63.4°F17.4°C 54.5°F12.5°C 73% 7.0 mph W11.3 kmh W 11.9 mph19.2 kmh 30.10 in1019.3 mb 0.00 in0.0 mm 0.00 in0.0 mm 0.00 in0.0 mm
05:17 AM 63.4°F17.4°C 54.5°F12.5°C 73% 7.5 mph WSW12.1 kmh WSW 12.8 mph20.6 kmh 30.10 in1019.3 mb 0.00 in0.0 mm 0.00 in0.0 mm 0.00 in0.0 mm
05:12 AM 63.5°F17.5°C 54.7°F12.6°C 73% 7.1 mph WSW11.4 kmh WSW 12.8 mph20.6 kmh 30.10 in1019.3 mb 0.00 in0.0 mm 0.00 in0.0 mm 0.00 in0.0 mm
05:07 AM 63.7°F17.6°C 54.9°F12.7°C 73% 9.2 mph SW14.8 kmh SW 12.5 mph20.1 kmh 30.10 in1019.3 mb 0.00 in0.0 mm 0.00 in0.0 mm 0.00 in0.0 mm
05:02 AM 63.7°F17.6°C 54.9°F12.7°C 73% 7.1 mph SW11.4 kmh SW 13.9 mph22.4 kmh 30.10 in1019.3 mb 0.00 in0.0 mm 0.00 in0.0 mm 0.00 in0.0 mm
04:56 AM 63.7°F17.6°C 54.9°F12.7°C 73% 10.8 mph WSW17.4 kmh WSW 13.9 mph22.4 kmh 30.10 in1019.3 mb 0.00 in0.0 mm 0.00 in0.0 mm 0.00 in0.0 mm
04:52 AM 63.9°F17.7°C 55.1°F12.8°C 73% 10.0 mph SW16.1 kmh SW 13.2 mph21.2 kmh 30.09 in1019.0 mb 0.00 in0.0 mm 0.00 in0.0 mm 0.00 in0.0 mm
04:47 AM 63.9°F17.7°C 54.7°F12.6°C 72% 9.6 mph WSW15.4 kmh WSW 16.6 mph26.7 kmh 30.09 in1019.0 mb 0.00 in0.0 mm 0.00 in0.0 mm 0.00 in0.0 mm
04:42 AM 63.9°F17.7°C 55.1°F12.8°C 73% 10.9 mph WSW17.5 kmh WSW 16.6 mph26.7 kmh 30.09 in1019.0 mb 0.00 in0.0 mm 0.00 in0.0 mm 0.00 in0.0 mm
04:37 AM 63.9°F17.7°C 55.1°F12.8°C 73% 11.9 mph SW19.2 kmh SW 14.3 mph23.0 kmh 30.09 in1019.0 mb 0.00 in0.0 mm 0.00 in0.0 mm 0.00 in0.0 mm
04:32 AM 63.9°F17.7°C 55.1°F12.8°C 73% 12.3 mph SW19.8 kmh SW 14.3 mph23.0 kmh 30.09 in1019.0 mb 0.00 in0.0 mm 0.00 in0.0 mm 0.00 in0.0 mm
04:27 AM 64.1°F17.8°C 55.3°F12.9°C 73% 10.4 mph SW16.7 kmh SW 15.9 mph25.6 kmh 30.09 in1019.0 mb 0.00 in0.0 mm 0.00 in0.0 mm 0.00 in0.0 mm
04:22 AM 64.1°F17.8°C 54.9°F12.7°C 72% 14.1 mph SW22.7 kmh SW 15.9 mph25.6 kmh 30.09 in1019.0 mb 0.00 in0.0 mm 0.00 in0.0 mm 0.00 in0.0 mm
04:17 AM 64.1°F17.8°C 54.5°F12.5°C 71% 10.8 mph SSW17.4 kmh SSW 14.3 mph23.0 kmh 30.09 in1019.0 mb 0.00 in0.0 mm 0.00 in0.0 mm 0.00 in0.0 mm
04:12 AM 64.3°F17.9°C 54.7°F12.6°C 71% 10.4 mph SW16.7 kmh SW 11.0 mph17.7 kmh 30.09 in1019.0 mb 0.00 in0.0 mm 0.00 in0.0 mm 0.00 in0.0 mm
04:07 AM 64.3°F17.9°C 54.4°F12.4°C 70% 8.8 mph SW14.2 kmh SW 10.3 mph16.6 kmh 30.09 in1019.0 mb 0.00 in0.0 mm 0.00 in0.0 mm 0.00 in0.0 mm
04:02 AM 64.4°F18.0°C 54.1°F12.3°C 69% 5.6 mph SW9.0 kmh SW 10.1 mph16.3 kmh 30.09 in1019.0 mb 0.00 in0.0 mm 0.00 in0.0 mm 0.00 in0.0 mm
03:56 AM 64.6°F18.1°C 53.8°F12.1°C 68% 10.1 mph SW16.3 kmh SW 10.1 mph16.3 kmh 30.09 in1019.0 mb 0.00 in0.0 mm 0.00 in0.0 mm 0.00 in0.0 mm
03:51 AM 64.8°F18.2°C 54.0°F12.2°C 68% 8.0 mph SW12.9 kmh SW 12.8 mph20.6 kmh 30.08 in1018.6 mb 0.00 in0.0 mm 0.00 in0.0 mm 0.00 in0.0 mm
03:47 AM 65.0°F18.3°C 54.2°F12.3°C 68% 8.7 mph SW14.0 kmh SW 12.8 mph20.6 kmh 30.08 in1018.6 mb 0.00 in0.0 mm 0.00 in0.0 mm 0.00 in0.0 mm
03:42 AM 65.2°F18.4°C 54.4°F12.4°C 68% 7.4 mph SW11.9 kmh SW 14.3 mph23.0 kmh 30.08 in1018.6 mb 0.00 in0.0 mm 0.00 in0.0 mm 0.00 in0.0 mm
03:37 AM 65.2°F18.4°C 54.4°F12.4°C 68% 13.6 mph SW21.9 kmh SW 14.3 mph23.0 kmh 30.08 in1018.6 mb 0.00 in0.0 mm 0.00 in0.0 mm 0.00 in0.0 mm
03:32 AM 65.5°F18.6°C 54.6°F12.6°C 68% 12.1 mph SW19.5 kmh SW 13.2 mph21.2 kmh 30.09 in1019.0 mb 0.00 in0.0 mm 0.00 in0.0 mm 0.00 in0.0 mm
03:27 AM 65.9°F18.8°C 54.2°F12.3°C 66% 11.0 mph SW17.7 kmh SW 13.2 mph21.2 kmh 30.09 in1019.0 mb 0.00 in0.0 mm 0.00 in0.0 mm 0.00 in0.0 mm
03:22 AM 65.9°F18.8°C 54.2°F12.3°C 66% 11.1 mph SW17.9 kmh SW 12.8 mph20.6 kmh 30.09 in1019.0 mb 0.00 in0.0 mm 0.00 in0.0 mm 0.00 in0.0 mm
03:17 AM 66.1°F18.9°C 53.9°F12.2°C 65% 8.9 mph SW14.3 kmh SW 15.7 mph25.3 kmh 30.09 in1019.0 mb 0.00 in0.0 mm 0.00 in0.0 mm 0.00 in0.0 mm
03:12 AM 66.2°F19.0°C 54.1°F12.3°C 65% 12.9 mph SW20.8 kmh SW 15.7 mph25.3 kmh 30.08 in1018.6 mb 0.00 in0.0 mm 0.00 in0.0 mm 0.00 in0.0 mm
03:07 AM 66.2°F19.0°C 54.1°F12.3°C 65% 10.6 mph SSW17.1 kmh SSW 13.0 mph20.9 kmh 30.08 in1018.6 mb 0.00 in0.0 mm 0.00 in0.0 mm 0.00 in0.0 mm
03:02 AM 66.2°F19.0°C 53.6°F12.0°C 64% 7.9 mph SSW12.7 kmh SSW 10.7 mph17.2 kmh 30.08 in1018.6 mb 0.00 in0.0 mm 0.00 in0.0 mm 0.00 in0.0 mm
02:56 AM 66.2°F19.0°C 53.6°F12.0°C 64% 8.1 mph SW13.0 kmh SW 11.6 mph18.7 kmh 30.08 in1018.6 mb 0.00 in0.0 mm 0.00 in0.0 mm 0.00 in0.0 mm
02:51 AM 66.2°F19.0°C 53.6°F12.0°C 64% 8.8 mph SW14.2 kmh SW 11.6 mph18.7 kmh 30.08 in1018.6 mb 0.00 in0.0 mm 0.00 in0.0 mm 0.00 in0.0 mm
02:46 AM 66.2°F19.0°C 53.3°F11.8°C 63% 4.5 mph SW7.2 kmh SW 8.3 mph13.4 kmh 30.08 in1018.6 mb 0.00 in0.0 mm 0.00 in0.0 mm 0.00 in0.0 mm
02:41 AM 66.2°F19.0°C 53.3°F11.8°C 63% 6.9 mph SW11.1 kmh SW 8.3 mph13.4 kmh 30.08 in1018.6 mb 0.00 in0.0 mm 0.00 in0.0 mm 0.00 in0.0 mm
02:36 AM 66.2°F19.0°C 53.3°F11.8°C 63% 4.2 mph SSW6.8 kmh SSW 6.3 mph10.1 kmh 30.09 in1019.0 mb 0.00 in0.0 mm 0.00 in0.0 mm 0.00 in0.0 mm
02:31 AM 66.1°F18.9°C 53.1°F11.7°C 63% 5.9 mph SW9.5 kmh SW 6.3 mph10.1 kmh 30.09 in1019.0 mb 0.00 in0.0 mm 0.00 in0.0 mm 0.00 in0.0 mm
02:26 AM 66.1°F18.9°C 53.1°F11.7°C 63% 4.5 mph SSW7.2 kmh SSW 6.3 mph10.1 kmh 30.09 in1019.0 mb 0.00 in0.0 mm 0.00 in0.0 mm 0.00 in0.0 mm
02:21 AM 66.1°F18.9°C 53.1°F11.7°C 63% 3.0 mph SW4.8 kmh SW 4.7 mph7.6 kmh 30.09 in1019.0 mb 0.00 in0.0 mm 0.00 in0.0 mm 0.00 in0.0 mm
02:17 AM 66.1°F18.9°C 53.1°F11.7°C 63% 1.1 mph WSW1.8 kmh WSW 4.7 mph7.6 kmh 30.09 in1019.0 mb 0.00 in0.0 mm 0.00 in0.0 mm 0.00 in0.0 mm
02:12 AM 66.1°F18.9°C 53.1°F11.7°C 63% 4.3 mph SW6.9 kmh SW 4.7 mph7.6 kmh 30.09 in1019.0 mb 0.00 in0.0 mm 0.00 in0.0 mm 0.00 in0.0 mm
02:07 AM 65.9°F18.8°C 53.4°F11.9°C 64% 1.8 mph SW2.9 kmh SW 3.4 mph5.5 kmh 30.09 in1019.0 mb 0.00 in0.0 mm 0.00 in0.0 mm 0.00 in0.0 mm
02:02 AM 66.1°F18.9°C 53.5°F11.9°C 64% 3.3 mph SW5.3 kmh SW 4.7 mph7.6 kmh 30.09 in1019.0 mb 0.00 in0.0 mm 0.00 in0.0 mm 0.00 in0.0 mm
01:56 AM 66.1°F18.9°C 53.5°F11.9°C 64% 2.3 mph SW3.7 kmh SW 7.4 mph11.9 kmh 30.09 in1019.0 mb 0.00 in0.0 mm 0.00 in0.0 mm 0.00 in0.0 mm
01:51 AM 66.1°F18.9°C 53.5°F11.9°C 64% 5.3 mph SW8.5 kmh SW 7.6 mph12.2 kmh 30.09 in1019.0 mb 0.00 in0.0 mm 0.00 in0.0 mm 0.00 in0.0 mm
01:46 AM 66.1°F18.9°C 53.5°F11.9°C 64% 3.7 mph SW6.0 kmh SW 7.8 mph12.6 kmh 30.09 in1019.0 mb 0.00 in0.0 mm 0.00 in0.0 mm 0.00 in0.0 mm
01:41 AM 66.1°F18.9°C 53.9°F12.2°C 65% 6.1 mph SW9.8 kmh SW 8.3 mph13.4 kmh 30.09 in1019.0 mb 0.00 in0.0 mm 0.00 in0.0 mm 0.00 in0.0 mm
01:36 AM 66.1°F18.9°C 53.9°F12.2°C 65% 6.5 mph WSW10.5 kmh WSW 8.3 mph13.4 kmh 30.09 in1019.0 mb 0.00 in0.0 mm 0.00 in0.0 mm 0.00 in0.0 mm
01:31 AM 66.2°F19.0°C 54.1°F12.3°C 65% 7.1 mph SW11.4 kmh SW 8.1 mph13.0 kmh 30.09 in1019.0 mb 0.00 in0.0 mm 0.00 in0.0 mm 0.00 in0.0 mm
01:26 AM 66.2°F19.0°C 53.6°F12.0°C 64% 6.6 mph SW10.6 kmh SW 8.5 mph13.7 kmh 30.09 in1019.0 mb 0.00 in0.0 mm 0.00 in0.0 mm 0.00 in0.0 mm
01:21 AM 66.4°F19.1°C 53.8°F12.1°C 64% 7.5 mph SW12.1 kmh SW 11.0 mph17.7 kmh 30.09 in1019.0 mb 0.00 in0.0 mm 0.00 in0.0 mm 0.00 in0.0 mm
01:16 AM 66.4°F19.1°C 53.8°F12.1°C 64% 6.2 mph WSW10.0 kmh WSW 11.0 mph17.7 kmh 30.09 in1019.0 mb 0.00 in0.0 mm 0.00 in0.0 mm 0.00 in0.0 mm
01:11 AM 66.6°F19.2°C 53.7°F12.1°C 63% 6.0 mph SW9.7 kmh SW 10.1 mph16.3 kmh 30.09 in1019.0 mb 0.00 in0.0 mm 0.00 in0.0 mm 0.00 in0.0 mm
01:07 AM 66.6°F19.2°C 54.0°F12.2°C 64% 8.1 mph SW13.0 kmh SW 10.1 mph16.3 kmh 30.09 in1019.0 mb 0.00 in0.0 mm 0.00 in0.0 mm 0.00 in0.0 mm
01:02 AM 66.6°F19.2°C 53.7°F12.1°C 63% 8.2 mph SW13.2 kmh SW 12.3 mph19.8 kmh 30.09 in1019.0 mb 0.00 in0.0 mm 0.00 in0.0 mm 0.00 in0.0 mm
12:56 AM 66.6°F19.2°C 54.0°F12.2°C 64% 8.9 mph SW14.3 kmh SW 12.3 mph19.8 kmh 30.09 in1019.0 mb 0.00 in0.0 mm 0.00 in0.0 mm 0.00 in0.0 mm
12:51 AM 66.6°F19.2°C 54.0°F12.2°C 64% 9.8 mph SW15.8 kmh SW 9.8 mph15.8 kmh 30.09 in1019.0 mb 0.00 in0.0 mm 0.00 in0.0 mm 0.00 in0.0 mm
12:46 AM 66.8°F19.3°C 53.7°F12.1°C 63% 7.3 mph SW11.7 kmh SW 11.0 mph17.7 kmh 30.09 in1019.0 mb 0.00 in0.0 mm 0.00 in0.0 mm 0.00 in0.0 mm
12:41 AM 66.8°F19.3°C 53.7°F12.1°C 63% 8.7 mph SW14.0 kmh SW 12.8 mph20.6 kmh 30.09 in1019.0 mb 0.00 in0.0 mm 0.00 in0.0 mm 0.00 in0.0 mm
12:36 AM 66.8°F19.3°C 53.4°F11.9°C 62% 9.1 mph SW14.6 kmh SW 12.8 mph20.6 kmh 30.09 in1019.0 mb 0.00 in0.0 mm 0.00 in0.0 mm 0.00 in0.0 mm
12:31 AM 66.8°F19.3°C 53.7°F12.1°C 63% 8.9 mph SW14.3 kmh SW 10.5 mph16.9 kmh 30.09 in1019.0 mb 0.00 in0.0 mm 0.00 in0.0 mm 0.00 in0.0 mm
12:26 AM 67.0°F19.4°C 53.9°F12.2°C 63% 9.8 mph SW15.8 kmh SW 11.9 mph19.2 kmh 30.09 in1019.0 mb 0.00 in0.0 mm 0.00 in0.0 mm 0.00 in0.0 mm
12:21 AM 67.0°F19.4°C 53.6°F12.0°C 62% 9.6 mph SW15.4 kmh SW 12.3 mph19.8 kmh 30.09 in1019.0 mb 0.00 in0.0 mm 0.00 in0.0 mm 0.00 in0.0 mm
12:16 AM 67.0°F19.4°C 53.6°F12.0°C 62% 11.4 mph SW18.3 kmh SW 12.3 mph19.8 kmh 30.09 in1019.0 mb 0.00 in0.0 mm 0.00 in0.0 mm 0.00 in0.0 mm
12:11 AM 67.0°F19.4°C 53.1°F11.7°C 61% 10.0 mph SW16.1 kmh SW 12.1 mph19.5 kmh 30.09 in1019.0 mb 0.00 in0.0 mm 0.00 in0.0 mm 0.00 in0.0 mm
12:06 AM 66.8°F19.3°C 52.9°F11.6°C 61% 7.0 mph SW11.3 kmh SW 10.7 mph17.2 kmh 30.09 in1019.0 mb 0.00 in0.0 mm 0.00 in0.0 mm 0.00 in0.0 mm
12:01 AM 66.8°F19.3°C 52.9°F11.6°C 61% 9.9 mph S15.9 kmh S 11.2 mph18.0 kmh 30.09 in1019.0 mb 0.00 in0.0 mm 0.00 in0.0 mm 0.00 in0.0 mm